Time;durP1;ratioP1;P1;durP2;ratioP2;P2;SDS_P1;SDS_P2;PMS_P1;PMS_P2;Temp;Humidity;BMP_temperature;BMP_pressure;BME280_temperature;BME280_humidity;BME280_pressure;Samples;Min_cycle;Max_cycle;Signal;HPM_P1;HPM_P2
2022/06/16 00:02:08;;;;;;;6.13;4.90;;;;;;;;;;778701;179;918837;-67
2022/06/16 00:04:34;;;;;;;6.90;5.50;;;;;;;;;;778481;179;918070;-67
2022/06/16 00:07:00;;;;;;;5.83;5.07;;;;;;;;;;783695;179;956237;-68
2022/06/16 00:09:25;;;;;;;6.00;5.40;;;;;;;;;;782037;179;918563;-68
2022/06/16 00:11:52;;;;;;;6.97;5.60;;;;;;;;;;777971;179;919904;-67
2022/06/16 00:14:17;;;;;;;6.70;5.37;;;;;;;;;;783767;179;918709;-67
2022/06/16 00:16:43;;;;;;;6.80;4.80;;;;;;;;;;778908;179;919539;-67
2022/06/16 00:19:09;;;;;;;11.07;5.47;;;;;;;;;;777952;179;919227;-69
2022/06/16 00:21:35;;;;;;;6.70;4.80;;;;;;;;;;780125;179;918848;-67
2022/06/16 00:24:01;;;;;;;8.93;5.50;;;;;;;;;;776321;179;918725;-67
2022/06/16 00:26:26;;;;;;;5.60;5.00;;;;;;;;;;778470;179;919342;-67
2022/06/16 00:28:52;;;;;;;5.60;4.87;;;;;;;;;;778297;179;919223;-67
2022/06/16 00:31:18;;;;;;;6.87;5.70;;;;;;;;;;785452;179;918421;-67
2022/06/16 00:33:44;;;;;;;7.13;5.13;;;;;;;;;;777930;179;918682;-68
2022/06/16 00:36:10;;;;;;;6.07;5.10;;;;;;;;;;777099;179;919726;-67
2022/06/16 00:38:36;;;;;;;6.60;5.70;;;;;;;;;;783383;179;918024;-67
2022/06/16 00:41:01;;;;;;;6.80;4.87;;;;;;;;;;777683;179;917649;-69
2022/06/16 00:43:27;;;;;;;10.80;6.40;;;;;;;;;;777699;179;1022583;-67
2022/06/16 00:45:56;;;;;;;7.37;5.50;;;;;;;;;;782331;179;916940;-68
2022/06/16 00:48:22;;;;;;;6.90;5.80;;;;;;;;;;781464;179;912627;-68
2022/06/16 00:50:48;;;;;;;5.53;4.87;;;;;;;;;;776007;178;918400;-68
2022/06/16 00:53:13;;;;;;;6.60;5.50;;;;;;;;;;775666;179;915658;-67
2022/06/16 00:55:39;;;;;;;7.80;5.87;;;;;;;;;;786131;177;918068;-68
2022/06/16 00:58:05;;;;;;;6.55;5.20;;;;;;;;;;781864;178;918761;-67
2022/06/16 01:00:34;;;;;;;9.63;6.07;;;;;;;;;;778325;179;919045;-68
2022/06/16 01:02:58;;;;;;;9.27;5.83;;;;;;;;;;783903;178;928625;-68
2022/06/16 01:05:24;;;;;;;10.77;5.13;;;;;;;;;;779873;178;919361;-68
2022/06/16 01:07:49;;;;;;;7.57;5.97;;;;;;;;;;780845;178;919021;-68
2022/06/16 01:10:15;;;;;;;8.60;4.50;;;;;;;;;;783262;178;918650;-68
2022/06/16 01:15:42;;;;;;;11.47;5.87;;;;;;;;;;779916;179;918028;-68
2022/06/16 01:18:14;;;;;;;11.43;5.00;;;;;;;;;;784441;179;919321;-68
2022/06/16 01:20:43;;;;;;;6.03;5.00;;;;;;;;;;778162;179;919202;-68
2022/06/16 01:23:13;;;;;;;14.70;5.63;;;;;;;;;;778579;179;918608;-69
2022/06/16 01:25:45;;;;;;;5.57;4.20;;;;;;;;;;777472;179;919185;-68
2022/06/16 01:28:11;;;;;;;12.50;4.70;;;;;;;;;;785303;179;918977;-69
2022/06/16 01:30:39;;;;;;;5.53;5.03;;;;;;;;;;778018;179;918858;-69
2022/06/16 01:33:05;;;;;;;17.67;5.77;;;;;;;;;;778694;179;920398;-69
2022/06/16 01:35:31;;;;;;;11.40;4.90;;;;;;;;;;778783;179;919095;-68
2022/06/16 01:37:56;;;;;;;14.97;6.80;;;;;;;;;;775518;179;919064;-68
2022/06/16 01:40:22;;;;;;;10.33;5.20;;;;;;;;;;778235;179;946070;-68
2022/06/16 01:43:03;;;;;;;7.57;4.73;;;;;;;;;;778483;179;921032;-70
2022/06/16 01:45:32;;;;;;;12.90;6.27;;;;;;;;;;777166;179;918767;-68
2022/06/16 01:47:58;;;;;;;6.60;5.90;;;;;;;;;;783629;179;918772;-68
2022/06/16 01:50:29;;;;;;;7.77;6.10;;;;;;;;;;779864;179;917903;-68
2022/06/16 01:52:55;;;;;;;7.53;5.80;;;;;;;;;;777729;179;921098;-68
2022/06/16 01:55:21;;;;;;;11.97;5.80;;;;;;;;;;780074;179;915506;-68
2022/06/16 01:57:47;;;;;;;9.73;5.00;;;;;;;;;;774761;179;913868;-68
2022/06/16 02:00:14;;;;;;;12.30;5.13;;;;;;;;;;776996;179;916507;-68
2022/06/16 02:02:40;;;;;;;10.02;5.35;;;;;;;;;;778312;179;913864;-68
2022/06/16 02:05:06;;;;;;;12.90;5.70;;;;;;;;;;784691;179;916123;-68
2022/06/16 02:07:32;;;;;;;8.10;5.73;;;;;;;;;;784017;177;916659;-68
2022/06/16 02:09:58;;;;;;;8.20;5.20;;;;;;;;;;781989;178;915678;-68
2022/06/16 02:14:56;;;;;;;11.07;5.45;;;;;;;;;;781374;178;915777;-68
2022/06/16 02:17:21;;;;;;;8.10;5.97;;;;;;;;;;777898;178;920324;-69
2022/06/16 02:19:47;;;;;;;5.70;5.07;;;;;;;;;;780775;178;1021454;-68
2022/06/16 02:22:13;;;;;;;9.23;5.90;;;;;;;;;;784290;178;918856;-68
2022/06/16 02:24:39;;;;;;;12.00;5.47;;;;;;;;;;780859;178;918891;-68
2022/06/16 02:27:05;;;;;;;7.62;5.37;;;;;;;;;;776536;179;919396;-68
2022/06/16 02:29:33;;;;;;;8.57;6.33;;;;;;;;;;783423;179;917433;-68
2022/06/16 02:31:58;;;;;;;9.47;5.80;;;;;;;;;;778774;179;918469;-68
2022/06/16 02:34:24;;;;;;;11.20;6.67;;;;;;;;;;778906;179;919505;-69
2022/06/16 02:36:56;;;;;;;36.97;6.50;;;;;;;;;;779005;179;919199;-67
2022/06/16 02:39:22;;;;;;;7.73;5.63;;;;;;;;;;779494;179;917428;-68
2022/06/16 02:41:54;;;;;;;8.60;6.00;;;;;;;;;;777625;179;918383;-68
2022/06/16 02:44:21;;;;;;;14.33;5.83;;;;;;;;;;779576;179;918229;-68
2022/06/16 02:46:51;;;;;;;11.03;6.17;;;;;;;;;;770923;179;919227;-69
2022/06/16 02:49:19;;;;;;;7.27;4.70;;;;;;;;;;780920;180;918488;-69
2022/06/16 02:51:45;;;;;;;8.30;5.80;;;;;;;;;;779017;179;918174;-69
2022/06/16 02:54:20;;;;;;;9.93;5.83;;;;;;;;;;781485;179;878637;-68
2022/06/16 02:56:50;;;;;;;10.50;5.30;;;;;;;;;;778370;179;928041;-68
2022/06/16 02:59:16;;;;;;;7.60;5.80;;;;;;;;;;782556;179;918129;-69
2022/06/16 03:01:42;;;;;;;10.53;6.70;;;;;;;;;;776916;179;919394;-69
2022/06/16 03:04:08;;;;;;;8.40;6.30;;;;;;;;;;779183;179;958441;-69
2022/06/16 03:06:34;;;;;;;9.35;5.68;;;;;;;;;;780778;179;918754;-68
2022/06/16 03:09:00;;;;;;;14.90;6.00;;;;;;;;;;777156;179;919380;-70
2022/06/16 03:11:26;;;;;;;19.83;5.87;;;;;;;;;;776686;179;919172;-68
2022/06/16 03:13:52;;;;;;;13.43;6.37;;;;;;;;;;776322;179;919166;-68
2022/06/16 03:16:18;;;;;;;8.00;5.33;;;;;;;;;;784359;179;918207;-68
2022/06/16 03:18:43;;;;;;;9.70;5.83;;;;;;;;;;779662;177;924311;-68
2022/06/16 03:21:09;;;;;;;9.33;5.80;;;;;;;;;;780801;178;918195;-68
2022/06/16 03:23:35;;;;;;;13.30;5.93;;;;;;;;;;786777;178;916867;-68
2022/06/16 03:26:01;;;;;;;8.13;6.43;;;;;;;;;;782409;178;919667;-68
2022/06/16 03:28:27;;;;;;;8.87;6.17;;;;;;;;;;778079;178;928480;-69
2022/06/16 03:30:53;;;;;;;11.68;6.35;;;;;;;;;;783691;178;919425;-68
2022/06/16 03:33:18;;;;;;;10.00;6.73;;;;;;;;;;781086;178;908617;-68
2022/06/16 03:35:44;;;;;;;9.80;6.23;;;;;;;;;;779172;178;918651;-68
2022/06/16 03:40:42;;;;;;;10.00;6.53;;;;;;;;;;784393;179;919096;-67
2022/06/16 03:43:08;;;;;;;19.17;6.93;;;;;;;;;;781272;179;918998;-68
2022/06/16 03:45:34;;;;;;;20.53;7.80;;;;;;;;;;780078;179;921657;-68
2022/06/16 03:48:00;;;;;;;12.17;7.33;;;;;;;;;;783428;179;918881;-68
2022/06/16 03:50:26;;;;;;;14.50;7.70;;;;;;;;;;779369;179;918710;-68
2022/06/16 03:52:52;;;;;;;10.20;7.67;;;;;;;;;;780629;179;919557;-69
2022/06/16 03:55:18;;;;;;;11.63;8.07;;;;;;;;;;778654;179;920574;-68
2022/06/16 03:57:43;;;;;;;11.30;8.30;;;;;;;;;;784877;179;919188;-68
2022/06/16 04:00:10;;;;;;;15.75;8.70;;;;;;;;;;777785;179;919255;-69
2022/06/16 04:02:35;;;;;;;11.50;8.37;;;;;;;;;;775768;179;917861;-68
2022/06/16 04:05:01;;;;;;;14.40;9.77;;;;;;;;;;782581;179;918853;-68
2022/06/16 04:07:27;;;;;;;13.40;10.00;;;;;;;;;;778457;179;919035;-69
2022/06/16 04:09:53;;;;;;;12.85;10.40;;;;;;;;;;777996;179;919783;-68
2022/06/16 04:12:19;;;;;;;17.70;10.70;;;;;;;;;;781929;179;916766;-69
2022/06/16 04:14:45;;;;;;;18.30;10.77;;;;;;;;;;780384;179;919325;-68
2022/06/16 04:17:10;;;;;;;19.23;11.70;;;;;;;;;;778506;179;917997;-68
2022/06/16 04:20:11;;;;;;;26.53;11.80;;;;;;;;;;776542;179;919609;-67
2022/06/16 04:22:02;;;;;;;17.20;12.17;;;;;;;;;;774430;179;918123;-68
2022/06/16 04:24:29;;;;;;;16.40;11.70;;;;;;;;;;775299;179;919119;-68
2022/06/16 04:26:54;;;;;;;17.77;12.43;;;;;;;;;;777594;179;918609;-67
2022/06/16 04:29:20;;;;;;;20.60;13.70;;;;;;;;;;785764;177;864530;-69
2022/06/16 04:31:46;;;;;;;15.90;12.67;;;;;;;;;;779875;178;919259;-70
2022/06/16 04:34:11;;;;;;;23.67;15.03;;;;;;;;;;781097;178;919361;-68
2022/06/16 04:36:37;;;;;;;23.70;14.70;;;;;;;;;;784752;178;911736;-68
2022/06/16 04:39:03;;;;;;;22.83;16.07;;;;;;;;;;779861;178;919271;-67
2022/06/16 04:41:29;;;;;;;19.57;15.37;;;;;;;;;;780962;178;918948;-69
2022/06/16 04:43:56;;;;;;;17.23;14.25;;;;;;;;;;783363;178;859003;-67
2022/06/16 04:46:22;;;;;;;19.03;13.10;;;;;;;;;;780036;178;919705;-68
2022/06/16 06:33:08;;;;;;;11.20;5.20;;;;;;;;;;781560;170;919994;-70
2022/06/16 06:35:33;;;;;;;6.13;5.20;;;;;;;;;;772156;179;923312;-71
2022/06/16 06:38:00;;;;;;;5.57;4.37;;;;;;;;;;754615;183;919108;-71
2022/06/16 06:40:25;;;;;;;7.53;4.37;;;;;;;;;;755922;183;919781;-71
2022/06/16 06:42:51;;;;;;;5.57;4.23;;;;;;;;;;764476;183;919430;-71
2022/06/16 06:45:17;;;;;;;9.03;4.80;;;;;;;;;;758646;183;921512;-72
2022/06/16 06:47:43;;;;;;;9.38;4.93;;;;;;;;;;756714;183;919954;-71
2022/06/16 06:50:09;;;;;;;8.30;4.90;;;;;;;;;;755868;184;919199;-71
2022/06/16 06:52:35;;;;;;;5.53;4.73;;;;;;;;;;757608;183;914907;-73
2022/06/16 06:55:00;;;;;;;9.93;5.60;;;;;;;;;;754627;183;919539;-72
2022/06/16 06:57:26;;;;;;;8.13;4.40;;;;;;;;;;747114;184;918825;-73
2022/06/16 06:59:52;;;;;;;6.33;4.97;;;;;;;;;;758226;184;919045;-72
2022/06/16 07:02:18;;;;;;;7.90;4.67;;;;;;;;;;748882;184;918432;-74
2022/06/16 07:04:44;;;;;;;10.90;5.47;;;;;;;;;;759988;183;918791;-74
2022/06/16 07:07:10;;;;;;;7.90;4.80;;;;;;;;;;757515;184;919002;-74
2022/06/16 07:09:35;;;;;;;7.37;4.80;;;;;;;;;;757175;183;919585;-74
2022/06/16 07:12:01;;;;;;;7.63;5.37;;;;;;;;;;756528;184;919324;-74
2022/06/16 07:14:29;;;;;;;5.17;4.40;;;;;;;;;;764115;184;909427;-73
2022/06/16 07:16:53;;;;;;;6.30;4.90;;;;;;;;;;759461;182;955787;-74
2022/06/16 07:19:19;;;;;;;7.47;5.00;;;;;;;;;;758242;184;1018959;-73
2022/06/16 07:21:45;;;;;;;13.80;5.50;;;;;;;;;;755592;184;916645;-73
2022/06/16 07:24:11;;;;;;;9.97;4.50;;;;;;;;;;760077;183;919792;-74
2022/06/16 07:26:36;;;;;;;6.73;4.90;;;;;;;;;;754624;183;918911;-73
2022/06/16 07:29:02;;;;;;;5.43;4.17;;;;;;;;;;759207;183;917731;-73
2022/06/16 07:31:28;;;;;;;8.77;4.37;;;;;;;;;;767436;183;615311;-73
2022/06/16 07:33:54;;;;;;;5.90;4.90;;;;;;;;;;758394;183;919870;-73
2022/06/16 07:36:20;;;;;;;7.43;4.63;;;;;;;;;;753677;184;918806;-75
2022/06/16 07:38:46;;;;;;;4.80;3.10;;;;;;;;;;761922;183;915070;-75
2022/06/16 07:41:44;;;;;;;7.60;4.53;;;;;;;;;;753753;183;919156;-73
2022/06/16 07:43:54;;;;;;;8.90;4.27;;;;;;;;;;757972;182;922767;-74
2022/06/16 07:46:19;;;;;;;6.40;4.77;;;;;;;;;;753707;182;975522;-74
2022/06/16 07:48:45;;;;;;;5.93;4.40;;;;;;;;;;749976;184;1022657;-76
2022/06/16 07:51:11;;;;;;;6.17;4.90;;;;;;;;;;751611;184;915765;-76
2022/06/16 07:53:37;;;;;;;10.20;5.20;;;;;;;;;;747969;184;914373;-76
2022/06/16 07:56:02;;;;;;;5.60;4.40;;;;;;;;;;747826;184;913366;-77
2022/06/16 07:58:31;;;;;;;7.83;4.80;;;;;;;;;;753967;185;813940;-76
2022/06/16 08:00:54;;;;;;;6.30;4.13;;;;;;;;;;750825;181;919195;-75
2022/06/16 08:03:26;;;;;;;8.00;4.87;;;;;;;;;;757887;183;1022416;-73
2022/06/16 08:05:46;;;;;;;6.17;4.60;;;;;;;;;;763763;184;927969;-74
2022/06/16 08:08:12;;;;;;;7.23;4.60;;;;;;;;;;756592;183;904474;-74
2022/06/16 08:10:38;;;;;;;6.07;4.65;;;;;;;;;;753518;183;919656;-75
2022/06/16 08:13:03;;;;;;;10.03;4.87;;;;;;;;;;761782;184;918478;-77
2022/06/16 08:15:29;;;;;;;5.50;4.60;;;;;;;;;;762161;183;784465;-75
2022/06/16 08:17:55;;;;;;;6.40;4.90;;;;;;;;;;757179;183;920239;-77
2022/06/16 08:20:21;;;;;;;5.00;3.90;;;;;;;;;;757235;183;817061;-76
2022/06/16 08:22:47;;;;;;;9.23;5.20;;;;;;;;;;758561;184;817994;-77
2022/06/16 08:25:13;;;;;;;8.80;5.40;;;;;;;;;;760120;184;919464;-76
2022/06/16 08:27:38;;;;;;;9.30;5.30;;;;;;;;;;760139;183;919754;-76
2022/06/16 08:30:05;;;;;;;7.40;4.33;;;;;;;;;;755573;183;920576;-79
2022/06/16 08:32:30;;;;;;;13.83;5.07;;;;;;;;;;752010;184;815896;-77
2022/06/16 08:34:56;;;;;;;9.82;4.55;;;;;;;;;;760335;184;917791;-77
2022/06/16 08:37:23;;;;;;;5.37;4.60;;;;;;;;;;764976;183;918045;-76
2022/06/16 08:39:48;;;;;;;11.83;4.77;;;;;;;;;;757535;184;915547;-76
2022/06/16 08:42:23;;;;;;;6.80;4.30;;;;;;;;;;751515;185;915552;-76
2022/06/16 08:44:51;;;;;;;7.27;4.73;;;;;;;;;;754130;184;919115;-76
2022/06/16 08:47:17;;;;;;;6.03;4.37;;;;;;;;;;763343;183;750676;-74
2022/06/16 08:49:46;;;;;;;7.57;4.90;;;;;;;;;;757746;184;915905;-73
2022/06/16 08:52:18;;;;;;;7.70;4.67;;;;;;;;;;746911;185;915187;-75
2022/06/16 08:55:00;;;;;;;8.83;5.00;;;;;;;;;;756123;183;919441;-74
2022/06/16 08:57:29;;;;;;;9.70;4.53;;;;;;;;;;748783;185;919107;-77
2022/06/16 08:59:58;;;;;;;6.87;4.03;;;;;;;;;;758295;183;919166;-74
2022/06/16 09:02:23;;;;;;;5.10;4.33;;;;;;;;;;763287;182;918502;-78
2022/06/16 09:04:50;;;;;;;8.63;4.20;;;;;;;;;;761426;183;919200;-76
2022/06/16 09:07:28;;;;;;;12.00;4.53;;;;;;;;;;757390;184;816141;-76
2022/06/16 09:12:48;;;;;;;6.57;5.03;;;;;;;;;;761679;183;918497;-76
2022/06/16 09:15:34;;;;;;;8.07;5.40;;;;;;;;;;747575;188;819069;-77
2022/06/16 09:18:07;;;;;;;7.80;3.67;;;;;;;;;;728740;190;918450;-76
2022/06/16 09:20:35;;;;;;;5.17;3.80;;;;;;;;;;748736;188;919859;-78
2022/06/16 09:23:19;;;;;;;12.37;4.30;;;;;;;;;;745447;186;919184;-77
2022/06/16 09:25:46;;;;;;;7.33;4.13;;;;;;;;;;747513;184;917937;-76
2022/06/16 09:28:12;;;;;;;7.87;4.27;;;;;;;;;;748685;184;916627;-76
2022/06/16 09:30:38;;;;;;;7.23;4.37;;;;;;;;;;749410;184;919081;-75
2022/06/16 09:33:06;;;;;;;6.40;4.20;;;;;;;;;;748110;187;918530;-76
2022/06/16 09:35:32;;;;;;;6.40;4.53;;;;;;;;;;746299;185;919728;-75
2022/06/16 09:37:58;;;;;;;7.00;4.30;;;;;;;;;;753920;183;916641;-76
2022/06/16 09:40:24;;;;;;;5.83;3.90;;;;;;;;;;755379;183;919385;-78
2022/06/16 09:42:50;;;;;;;6.70;4.10;;;;;;;;;;755094;183;723143;-79
2022/06/16 09:45:19;;;;;;;7.50;3.97;;;;;;;;;;749648;184;919791;-78
2022/06/16 09:47:50;;;;;;;7.60;4.13;;;;;;;;;;752985;183;918582;-75
2022/06/16 09:50:24;;;;;;;5.57;4.20;;;;;;;;;;764438;182;917181;-78
2022/06/16 09:52:52;;;;;;;12.73;4.73;;;;;;;;;;759705;183;919405;-77
2022/06/16 09:55:20;;;;;;;6.67;4.40;;;;;;;;;;757480;182;918719;-75
2022/06/16 09:57:46;;;;;;;6.90;4.85;;;;;;;;;;752629;183;918383;-77
2022/06/16 10:00:14;;;;;;;7.53;4.13;;;;;;;;;;761314;184;921170;-78
2022/06/16 10:02:42;;;;;;;5.70;4.40;;;;;;;;;;762490;183;918001;-74
2022/06/16 10:05:08;;;;;;;9.37;5.13;;;;;;;;;;752771;184;917993;-76
2022/06/16 10:07:37;;;;;;;8.53;4.93;;;;;;;;;;764659;183;918823;-74
2022/06/16 10:10:03;;;;;;;5.10;4.30;;;;;;;;;;766974;184;919430;-76
2022/06/16 10:12:32;;;;;;;8.50;4.20;;;;;;;;;;751106;184;917645;-77
2022/06/16 10:15:00;;;;;;;8.37;5.13;;;;;;;;;;756663;183;919028;-77
2022/06/16 10:17:25;;;;;;;9.13;4.00;;;;;;;;;;760326;184;919177;-78
2022/06/16 10:19:51;;;;;;;10.40;4.67;;;;;;;;;;756381;184;919043;-77
2022/06/16 10:22:19;;;;;;;26.73;4.97;;;;;;;;;;749359;185;917564;-76
2022/06/16 10:24:50;;;;;;;6.07;4.50;;;;;;;;;;747338;184;917893;-76
2022/06/16 10:27:16;;;;;;;7.60;3.70;;;;;;;;;;766032;182;919065;-77
2022/06/16 10:29:42;;;;;;;5.77;3.57;;;;;;;;;;762412;183;817195;-78
2022/06/16 18:21:34;;;;;;;7.70;5.97;;;;;;;;;;771038;170;1021632;-73
2022/06/16 18:24:02;;;;;;;8.37;6.20;;;;;;;;;;770399;180;919254;-73
2022/06/16 18:26:28;;;;;;;7.57;6.10;;;;;;;;;;762132;180;635954;-75
2022/06/16 18:28:54;;;;;;;8.50;4.20;;;;;;;;;;770477;180;706173;-73
2022/06/16 18:31:19;;;;;;;7.63;4.83;;;;;;;;;;767768;180;633009;-74
2022/06/16 18:33:46;;;;;;;9.03;5.30;;;;;;;;;;778560;179;639527;-79
2022/06/16 18:36:11;;;;;;;7.93;4.80;;;;;;;;;;765292;183;619669;-72
2022/06/16 18:38:37;;;;;;;8.43;5.60;;;;;;;;;;757148;183;918363;-76
2022/06/16 18:41:03;;;;;;;6.37;5.17;;;;;;;;;;771745;180;921354;-73
2022/06/16 18:43:29;;;;;;;6.20;5.27;;;;;;;;;;769745;180;873752;-72
2022/06/16 18:45:55;;;;;;;7.20;4.85;;;;;;;;;;766538;180;1120819;-74
2022/06/16 18:48:21;;;;;;;7.70;5.00;;;;;;;;;;770576;180;918646;-75
2022/06/16 18:50:46;;;;;;;6.40;5.17;;;;;;;;;;767750;180;1116244;-75
2022/06/16 18:53:13;;;;;;;5.80;4.67;;;;;;;;;;772721;180;624764;-76
2022/06/16 18:55:38;;;;;;;12.00;5.37;;;;;;;;;;758310;183;916790;-74
2022/06/16 18:58:04;;;;;;;8.53;4.53;;;;;;;;;;774088;180;621600;-75
2022/06/16 19:00:30;;;;;;;7.50;4.97;;;;;;;;;;758939;183;1021409;-75
2022/06/16 19:02:56;;;;;;;7.30;5.60;;;;;;;;;;765057;183;621981;-75
2022/06/16 19:05:22;;;;;;;7.40;5.17;;;;;;;;;;766526;183;624483;-75
2022/06/16 19:07:48;;;;;;;6.13;4.83;;;;;;;;;;765113;183;627003;-75
2022/06/16 19:10:17;;;;;;;7.97;5.70;;;;;;;;;;763765;183;627899;-75
2022/06/16 19:12:42;;;;;;;9.27;5.67;;;;;;;;;;768504;183;919142;-75
2022/06/16 19:15:09;;;;;;;9.83;6.17;;;;;;;;;;766937;183;632259;-75
2022/06/16 19:17:35;;;;;;;11.80;6.10;;;;;;;;;;763790;181;918923;-76
2022/06/16 19:20:10;;;;;;;7.43;4.83;;;;;;;;;;770263;181;627493;-76
2022/06/16 19:22:36;;;;;;;7.70;5.77;;;;;;;;;;773822;180;632707;-75
2022/06/16 19:25:02;;;;;;;6.37;5.50;;;;;;;;;;766247;180;630558;-75
2022/06/16 19:27:28;;;;;;;7.10;5.13;;;;;;;;;;765208;181;893406;-75
2022/06/16 19:29:55;;;;;;;8.23;4.47;;;;;;;;;;769920;180;916295;-75
2022/06/16 19:32:21;;;;;;;6.37;5.27;;;;;;;;;;766840;181;918934;-76
2022/06/16 19:34:47;;;;;;;8.00;4.87;;;;;;;;;;765681;182;914780;-76
2022/06/16 19:37:12;;;;;;;7.43;5.40;;;;;;;;;;761395;182;932091;-76
2022/06/16 19:39:38;;;;;;;6.63;4.90;;;;;;;;;;772082;180;919369;-75
2022/06/16 19:42:05;;;;;;;9.13;6.10;;;;;;;;;;769851;180;918725;-75
2022/06/16 19:52:05;;;;;;;8.27;5.73;;;;;;;;;;760502;183;1048452;-76
2022/06/16 19:54:32;;;;;;;10.70;5.20;;;;;;;;;;760017;183;921814;-75
2022/06/16 19:56:57;;;;;;;9.07;5.37;;;;;;;;;;760786;182;920528;-76
2022/06/16 19:59:23;;;;;;;8.13;5.03;;;;;;;;;;768143;183;914132;-76
2022/06/16 20:01:50;;;;;;;8.30;5.67;;;;;;;;;;762716;183;917078;-77
2022/06/16 20:04:15;;;;;;;13.27;6.03;;;;;;;;;;761529;183;916495;-76
2022/06/16 20:06:40;;;;;;;10.60;5.50;;;;;;;;;;765634;183;916858;-76
2022/06/16 20:09:06;;;;;;;11.13;6.10;;;;;;;;;;759261;183;916313;-77
2022/06/16 20:11:32;;;;;;;6.67;5.10;;;;;;;;;;760575;183;915585;-77
2022/06/16 20:13:58;;;;;;;6.77;4.73;;;;;;;;;;763063;183;916870;-77
2022/06/16 20:16:24;;;;;;;8.70;5.70;;;;;;;;;;759668;183;919552;-76
2022/06/16 20:18:50;;;;;;;5.90;4.70;;;;;;;;;;761522;183;919380;-76
2022/06/16 20:21:16;;;;;;;6.00;5.00;;;;;;;;;;759420;183;919217;-77
2022/06/16 20:23:41;;;;;;;11.87;5.90;;;;;;;;;;763454;184;1021861;-78
2022/06/16 20:26:07;;;;;;;112.47;9.47;;;;;;;;;;756288;180;919447;-78
2022/06/16 20:28:33;;;;;;;22.10;5.77;;;;;;;;;;767407;180;919647;-77
2022/06/16 20:30:59;;;;;;;8.17;4.70;;;;;;;;;;775133;180;918925;-77
2022/06/16 20:33:25;;;;;;;7.10;4.90;;;;;;;;;;756705;181;919178;-77
2022/06/16 20:35:51;;;;;;;6.17;4.60;;;;;;;;;;768112;181;919270;-77
2022/06/16 20:38:17;;;;;;;6.67;5.40;;;;;;;;;;770439;181;917416;-77
2022/06/16 20:40:43;;;;;;;8.33;4.70;;;;;;;;;;764119;180;919435;-77
2022/06/16 20:43:10;;;;;;;10.03;5.40;;;;;;;;;;765477;181;919375;-77
2022/06/16 20:45:36;;;;;;;8.20;5.47;;;;;;;;;;769639;180;918945;-77
2022/06/16 20:48:02;;;;;;;7.80;4.70;;;;;;;;;;769088;180;918848;-78
2022/06/16 20:50:29;;;;;;;8.60;4.67;;;;;;;;;;762696;182;920095;-77
2022/06/16 20:52:54;;;;;;;6.00;4.13;;;;;;;;;;764395;183;631474;-77
2022/06/16 20:55:20;;;;;;;17.40;4.90;;;;;;;;;;769685;181;632224;-77
2022/06/16 21:02:49;;;;;;;4.70;3.72;;;;;;;;;;762234;183;919206;-77
2022/06/16 21:05:15;;;;;;;7.00;4.90;;;;;;;;;;765326;183;918969;-78
2022/06/16 21:07:40;;;;;;;13.63;4.87;;;;;;;;;;761092;183;918528;-77
2022/06/16 21:10:10;;;;;;;11.10;4.20;;;;;;;;;;757443;183;919295;-78
2022/06/16 21:12:36;;;;;;;14.30;6.00;;;;;;;;;;755224;184;919045;-75
2022/06/16 21:15:02;;;;;;;30.07;6.00;;;;;;;;;;766864;181;1020735;-78
2022/06/16 21:17:28;;;;;;;20.13;4.77;;;;;;;;;;760209;183;917960;-78
2022/06/16 21:19:53;;;;;;;55.17;7.90;;;;;;;;;;753990;184;919527;-78
2022/06/16 21:22:25;;;;;;;39.93;7.10;;;;;;;;;;765130;183;917936;-77
2022/06/16 21:24:51;;;;;;;16.57;5.33;;;;;;;;;;762906;181;919163;-77
2022/06/16 21:27:17;;;;;;;50.67;6.90;;;;;;;;;;756469;183;986226;-77
2022/06/16 21:29:43;;;;;;;35.63;7.43;;;;;;;;;;764600;183;918936;-76
2022/06/16 21:32:08;;;;;;;15.43;6.00;;;;;;;;;;757610;181;1021302;-75
2022/06/16 21:34:34;;;;;;;29.67;6.20;;;;;;;;;;756295;181;1021429;-76
2022/06/16 21:37:00;;;;;;;20.97;6.30;;;;;;;;;;758982;181;919501;-76
2022/06/16 21:39:26;;;;;;;18.10;5.80;;;;;;;;;;761839;183;918819;-76
2022/06/16 21:41:52;;;;;;;17.37;5.57;;;;;;;;;;760547;179;918852;-76
2022/06/16 21:44:18;;;;;;;11.50;5.87;;;;;;;;;;760003;181;959102;-75
2022/06/16 21:46:44;;;;;;;24.70;6.10;;;;;;;;;;765706;181;919278;-74
2022/06/16 21:49:09;;;;;;;11.00;6.37;;;;;;;;;;761735;181;919220;-75
2022/06/16 21:51:35;;;;;;;7.80;5.47;;;;;;;;;;753130;184;919636;-76
2022/06/16 21:54:01;;;;;;;14.50;5.80;;;;;;;;;;765756;181;919385;-75
2022/06/16 21:56:27;;;;;;;8.97;5.67;;;;;;;;;;766179;180;919159;-76
2022/06/16 21:58:53;;;;;;;8.63;5.87;;;;;;;;;;763572;180;921450;-75
2022/06/16 22:01:19;;;;;;;12.50;6.17;;;;;;;;;;770657;180;918651;-75
2022/06/16 22:03:44;;;;;;;16.37;6.37;;;;;;;;;;770271;180;918187;-75
2022/06/16 22:06:10;;;;;;;10.17;5.30;;;;;;;;;;756312;180;919753;-75
2022/06/16 22:08:36;;;;;;;49.23;7.60;;;;;;;;;;754180;183;919107;-74
2022/06/16 22:13:34;;;;;;;23.52;5.62;;;;;;;;;;757906;184;918259;-75
2022/06/16 22:15:59;;;;;;;96.57;12.43;;;;;;;;;;760853;183;1021664;-75
2022/06/16 22:18:26;;;;;;;7.87;5.87;;;;;;;;;;762678;183;919195;-72
2022/06/16 22:20:52;;;;;;;6.93;5.70;;;;;;;;;;771714;180;919282;-75
2022/06/16 22:23:21;;;;;;;8.53;5.83;;;;;;;;;;761099;180;918985;-75
2022/06/16 22:25:46;;;;;;;12.87;4.80;;;;;;;;;;764920;180;923234;-76
2022/06/16 22:28:12;;;;;;;49.13;6.50;;;;;;;;;;765144;181;918969;-76
2022/06/16 22:30:38;;;;;;;23.87;6.07;;;;;;;;;;758662;183;918438;-76
2022/06/16 22:33:04;;;;;;;42.30;8.80;;;;;;;;;;760315;183;918935;-77
2022/06/16 22:35:30;;;;;;;26.23;5.03;;;;;;;;;;765720;184;919574;-76
2022/06/16 22:37:56;;;;;;;6.70;4.73;;;;;;;;;;759103;183;938220;-76
2022/06/16 22:40:26;;;;;;;14.37;4.77;;;;;;;;;;760727;183;919388;-76
2022/06/16 22:43:03;;;;;;;5.80;3.80;;;;;;;;;;763773;181;1020944;-76
2022/06/16 22:45:29;;;;;;;50.20;5.90;;;;;;;;;;758702;184;919725;-77
2022/06/16 22:47:55;;;;;;;27.67;6.47;;;;;;;;;;769480;183;919605;-77
2022/06/16 22:50:20;;;;;;;6.83;4.50;;;;;;;;;;753301;181;2147674;-78
2022/06/16 22:52:46;;;;;;;4.97;4.13;;;;;;;;;;760146;181;919450;-76
2022/06/16 22:57:44;;;;;;;8.67;4.20;;;;;;;;;;764286;181;918648;-76
2022/06/16 23:00:11;;;;;;;73.07;7.97;;;;;;;;;;759867;182;919052;-76
2022/06/16 23:02:36;;;;;;;123.40;12.73;;;;;;;;;;760453;183;919617;-76
2022/06/16 23:05:03;;;;;;;13.73;4.40;;;;;;;;;;760508;183;918614;-76
2022/06/16 23:07:29;;;;;;;14.13;5.83;;;;;;;;;;764178;180;919406;-76
2022/06/16 23:09:54;;;;;;;27.77;5.78;;;;;;;;;;759701;180;1021496;-75
2022/06/16 23:12:20;;;;;;;106.60;12.10;;;;;;;;;;765230;182;919196;-76
2022/06/16 23:14:47;;;;;;;116.07;11.53;;;;;;;;;;759809;182;919338;-76
2022/06/16 23:17:12;;;;;;;13.40;4.60;;;;;;;;;;759060;183;919534;-76
2022/06/16 23:19:38;;;;;;;25.07;5.83;;;;;;;;;;765144;183;1029653;-76
2022/06/16 23:22:04;;;;;;;18.70;5.53;;;;;;;;;;763857;183;919392;-76
2022/06/16 23:24:30;;;;;;;7.30;4.72;;;;;;;;;;768392;180;919642;-75
2022/06/16 23:26:56;;;;;;;42.57;5.97;;;;;;;;;;766476;180;945707;-73
2022/06/16 23:29:22;;;;;;;29.97;7.50;;;;;;;;;;757110;183;918477;-75
2022/06/16 23:31:48;;;;;;;35.13;7.00;;;;;;;;;;765907;183;624008;-76
2022/06/16 23:34:16;;;;;;;10.53;4.77;;;;;;;;;;759290;184;919143;-75
2022/06/16 23:36:39;;;;;;;22.27;4.53;;;;;;;;;;761502;183;919054;-76
2022/06/16 23:39:05;;;;;;;22.50;5.43;;;;;;;;;;759162;184;1123293;-76
2022/06/16 23:41:31;;;;;;;67.53;7.10;;;;;;;;;;758063;180;921589;-76
2022/06/16 23:43:57;;;;;;;48.53;6.10;;;;;;;;;;766005;181;919367;-76
2022/06/16 23:46:23;;;;;;;33.13;5.67;;;;;;;;;;762942;181;922281;-75
2022/06/16 23:48:48;;;;;;;22.73;5.40;;;;;;;;;;760315;181;918609;-76
2022/06/16 23:51:14;;;;;;;25.93;6.13;;;;;;;;;;767124;183;636395;-75
2022/06/16 23:53:40;;;;;;;49.23;5.00;;;;;;;;;;759319;183;821249;-77
2022/06/16 23:56:06;;;;;;;12.00;4.50;;;;;;;;;;764735;183;918487;-76
2022/06/16 23:58:32;;;;;;;23.00;5.10;;;;;;;;;;759209;183;919010;-75
